sensor_id;sensor_type;location;lat;lon;timestamp;pressure;altitude;pressure_sealevel;temperature;humidity
64933;BME280;51446;53.850;10.662;2023-02-02T00:01:23;100763.94;;;5.06;100.00
64933;BME280;51446;53.850;10.662;2023-02-02T00:03:49;100768.25;;;5.05;100.00
64933;BME280;51446;53.850;10.662;2023-02-02T00:06:15;100766.38;;;5.01;100.00
64933;BME280;51446;53.850;10.662;2023-02-02T00:08:41;100782.72;;;4.98;100.00
64933;BME280;51446;53.850;10.662;2023-02-02T00:11:06;100791.41;;;4.99;100.00
64933;BME280;51446;53.850;10.662;2023-02-02T00:13:32;100787.56;;;4.89;100.00
64933;BME280;51446;53.850;10.662;2023-02-02T00:15:57;100789.47;;;4.93;100.00
64933;BME280;51446;53.850;10.662;2023-02-02T00:18:22;100791.25;;;4.94;100.00
64933;BME280;51446;53.850;10.662;2023-02-02T00:20:47;100803.28;;;4.92;100.00
64933;BME280;51446;53.850;10.662;2023-02-02T00:23:15;100803.34;;;4.94;100.00
64933;BME280;51446;53.850;10.662;2023-02-02T00:25:40;100812.91;;;4.95;100.00
64933;BME280;51446;53.850;10.662;2023-02-02T00:28:05;100812.84;;;4.93;100.00
64933;BME280;51446;53.850;10.662;2023-02-02T00:30:30;100812.16;;;4.97;100.00
64933;BME280;51446;53.850;10.662;2023-02-02T00:32:56;100814.63;;;4.94;100.00
64933;BME280;51446;53.850;10.662;2023-02-02T00:35:21;100817.19;;;4.93;100.00
64933;BME280;51446;53.850;10.662;2023-02-02T00:37:47;100821.22;;;4.86;100.00
64933;BME280;51446;53.850;10.662;2023-02-02T00:40:12;100823.38;;;4.75;100.00
64933;BME280;51446;53.850;10.662;2023-02-02T00:42:37;100831.81;;;4.69;100.00
64933;BME280;51446;53.850;10.662;2023-02-02T00:45:03;100834.94;;;4.61;100.00
64933;BME280;51446;53.850;10.662;2023-02-02T00:47:42;100840.41;;;4.67;100.00
64933;BME280;51446;53.850;10.662;2023-02-02T00:50:10;100841.09;;;4.63;100.00
64933;BME280;51446;53.850;10.662;2023-02-02T00:52:35;100854.66;;;4.56;100.00
64933;BME280;51446;53.850;10.662;2023-02-02T00:55:01;100865.97;;;4.58;100.00
64933;BME280;51446;53.850;10.662;2023-02-02T00:57:26;100865.09;;;4.57;100.00
64933;BME280;51446;53.850;10.662;2023-02-02T00:59:51;100872.19;;;4.61;100.00
64933;BME280;51446;53.850;10.662;2023-02-02T01:02:16;100871.09;;;4.56;100.00
64933;BME280;51446;53.850;10.662;2023-02-02T01:04:42;100875.50;;;4.57;100.00
64933;BME280;51446;53.850;10.662;2023-02-02T01:07:07;100879.66;;;4.54;100.00
64933;BME280;51446;53.850;10.662;2023-02-02T01:09:32;100881.25;;;4.50;100.00
64933;BME280;51446;53.850;10.662;2023-02-02T01:11:57;100892.25;;;4.44;100.00
64933;BME280;51446;53.850;10.662;2023-02-02T01:14:23;100887.75;;;4.40;100.00
64933;BME280;51446;53.850;10.662;2023-02-02T01:16:48;100911.69;;;4.33;100.00
64933;BME280;51446;53.850;10.662;2023-02-02T01:19:14;100903.22;;;4.37;100.00
64933;BME280;51446;53.850;10.662;2023-02-02T01:21:40;100904.16;;;4.39;100.00
64933;BME280;51446;53.850;10.662;2023-02-02T01:24:06;100909.84;;;4.30;100.00
64933;BME280;51446;53.850;10.662;2023-02-02T01:26:31;100914.22;;;4.31;100.00
64933;BME280;51446;53.850;10.662;2023-02-02T01:28:57;100916.34;;;4.21;100.00
64933;BME280;51446;53.850;10.662;2023-02-02T01:31:22;100918.09;;;4.22;100.00
64933;BME280;51446;53.850;10.662;2023-02-02T01:33:48;100934.09;;;4.11;100.00
64933;BME280;51446;53.850;10.662;2023-02-02T01:36:16;100926.19;;;4.08;100.00
64933;BME280;51446;53.850;10.662;2023-02-02T01:38:42;100940.94;;;4.09;100.00
64933;BME280;51446;53.850;10.662;2023-02-02T01:41:12;100941.75;;;4.08;100.00
64933;BME280;51446;53.850;10.662;2023-02-02T01:46:10;100944.34;;;4.08;100.00
64933;BME280;51446;53.850;10.662;2023-02-02T01:48:36;100948.97;;;3.96;100.00
64933;BME280;51446;53.850;10.662;2023-02-02T01:51:05;100960.25;;;3.96;100.00
64933;BME280;51446;53.850;10.662;2023-02-02T01:53:33;100961.00;;;3.94;100.00
64933;BME280;51446;53.850;10.662;2023-02-02T01:56:00;100963.25;;;3.86;100.00
64933;BME280;51446;53.850;10.662;2023-02-02T01:58:33;100967.53;;;3.86;100.00
64933;BME280;51446;53.850;10.662;2023-02-02T02:00:59;100964.19;;;3.88;100.00
64933;BME280;51446;53.850;10.662;2023-02-02T02:03:26;100971.78;;;3.84;100.00
64933;BME280;51446;53.850;10.662;2023-02-02T02:05:55;100974.72;;;3.91;100.00
64933;BME280;51446;53.850;10.662;2023-02-02T02:08:25;100978.66;;;3.83;100.00
64933;BME280;51446;53.850;10.662;2023-02-02T02:10:51;100981.25;;;3.83;100.00
64933;BME280;51446;53.850;10.662;2023-02-02T02:13:18;100977.97;;;3.87;100.00
64933;BME280;51446;53.850;10.662;2023-02-02T02:15:59;100976.06;;;3.83;100.00
64933;BME280;51446;53.850;10.662;2023-02-02T02:18:57;100984.22;;;3.91;100.00
64933;BME280;51446;53.850;10.662;2023-02-02T02:21:49;100977.09;;;3.87;100.00
64933;BME280;51446;53.850;10.662;2023-02-02T02:30:53;100998.88;;;3.90;100.00
64933;BME280;51446;53.850;10.662;2023-02-02T02:36:11;101022.22;;;3.90;100.00
64933;BME280;51446;53.850;10.662;2023-02-02T02:41:32;101033.50;;;3.91;100.00
64933;BME280;51446;53.850;10.662;2023-02-02T02:44:05;101039.50;;;3.90;100.00
64933;BME280;51446;53.850;10.662;2023-02-02T02:46:33;101043.16;;;3.93;100.00
64933;BME280;51446;53.850;10.662;2023-02-02T02:48:59;101046.41;;;3.89;100.00
64933;BME280;51446;53.850;10.662;2023-02-02T02:54:11;101045.03;;;3.97;100.00
64933;BME280;51446;53.850;10.662;2023-02-02T02:56:47;101040.63;;;3.95;100.00
64933;BME280;51446;53.850;10.662;2023-02-02T03:05:06;101062.72;;;3.69;100.00
64933;BME280;51446;53.850;10.662;2023-02-02T03:07:43;101063.53;;;3.68;100.00
64933;BME280;51446;53.850;10.662;2023-02-02T03:10:13;101064.44;;;3.68;100.00
64933;BME280;51446;53.850;10.662;2023-02-02T03:12:46;101061.97;;;3.71;100.00
64933;BME280;51446;53.850;10.662;2023-02-02T03:15:12;101073.78;;;3.64;100.00
64933;BME280;51446;53.850;10.662;2023-02-02T03:17:38;101077.19;;;3.63;100.00
64933;BME280;51446;53.850;10.662;2023-02-02T03:20:04;101078.97;;;3.64;100.00
64933;BME280;51446;53.850;10.662;2023-02-02T03:22:30;101076.38;;;3.64;100.00
64933;BME280;51446;53.850;10.662;2023-02-02T03:24:55;101080.72;;;3.65;100.00
64933;BME280;51446;53.850;10.662;2023-02-02T03:27:21;101084.50;;;3.54;100.00
64933;BME280;51446;53.850;10.662;2023-02-02T03:29:46;101086.63;;;3.63;100.00
64933;BME280;51446;53.850;10.662;2023-02-02T03:32:11;101105.56;;;3.60;100.00
64933;BME280;51446;53.850;10.662;2023-02-02T03:34:36;101107.38;;;3.63;100.00
64933;BME280;51446;53.850;10.662;2023-02-02T03:37:02;101107.84;;;3.72;100.00
64933;BME280;51446;53.850;10.662;2023-02-02T03:39:27;101099.94;;;3.69;100.00
64933;BME280;51446;53.850;10.662;2023-02-02T03:41:52;101112.75;;;3.66;100.00
64933;BME280;51446;53.850;10.662;2023-02-02T03:44:17;101115.94;;;3.60;100.00
64933;BME280;51446;53.850;10.662;2023-02-02T03:46:43;101119.84;;;3.70;100.00
64933;BME280;51446;53.850;10.662;2023-02-02T03:49:08;101121.34;;;3.65;100.00
64933;BME280;51446;53.850;10.662;2023-02-02T03:51:33;101123.47;;;3.56;100.00
64933;BME280;51446;53.850;10.662;2023-02-02T03:53:58;101130.44;;;3.57;100.00
64933;BME280;51446;53.850;10.662;2023-02-02T03:56:24;101131.00;;;3.51;100.00
64933;BME280;51446;53.850;10.662;2023-02-02T03:58:49;101132.56;;;3.47;100.00
64933;BME280;51446;53.850;10.662;2023-02-02T04:01:14;101134.34;;;3.48;100.00
64933;BME280;51446;53.850;10.662;2023-02-02T04:03:40;101138.13;;;3.55;100.00
64933;BME280;51446;53.850;10.662;2023-02-02T04:06:05;101139.13;;;3.57;100.00
64933;BME280;51446;53.850;10.662;2023-02-02T04:08:31;101145.84;;;3.54;100.00
64933;BME280;51446;53.850;10.662;2023-02-02T04:10:57;101144.31;;;3.57;100.00
64933;BME280;51446;53.850;10.662;2023-02-02T04:13:23;101153.91;;;3.60;100.00
64933;BME280;51446;53.850;10.662;2023-02-02T04:15:56;101152.31;;;3.62;100.00
64933;BME280;51446;53.850;10.662;2023-02-02T04:18:21;101156.06;;;3.69;100.00
64933;BME280;51446;53.850;10.662;2023-02-02T04:20:46;101161.19;;;3.67;100.00
64933;BME280;51446;53.850;10.662;2023-02-02T04:23:11;101168.03;;;3.65;100.00
64933;BME280;51446;53.850;10.662;2023-02-02T04:25:37;101166.53;;;3.70;100.00
64933;BME280;51446;53.850;10.662;2023-02-02T04:28:02;101173.50;;;3.71;100.00
64933;BME280;51446;53.850;10.662;2023-02-02T04:30:27;101180.03;;;3.81;100.00
64933;BME280;51446;53.850;10.662;2023-02-02T04:32:53;101166.63;;;3.72;100.00
64933;BME280;51446;53.850;10.662;2023-02-02T04:35:18;101192.06;;;3.79;100.00
64933;BME280;51446;53.850;10.662;2023-02-02T04:37:44;101190.41;;;3.81;100.00
64933;BME280;51446;53.850;10.662;2023-02-02T04:40:10;101193.31;;;3.69;100.00
64933;BME280;51446;53.850;10.662;2023-02-02T04:42:35;101198.78;;;3.75;100.00
64933;BME280;51446;53.850;10.662;2023-02-02T04:45:00;101198.84;;;3.77;100.00
64933;BME280;51446;53.850;10.662;2023-02-02T04:47:25;101209.66;;;3.68;100.00
64933;BME280;51446;53.850;10.662;2023-02-02T04:49:51;101201.88;;;3.68;100.00
64933;BME280;51446;53.850;10.662;2023-02-02T04:52:16;101210.31;;;3.64;100.00
64933;BME280;51446;53.850;10.662;2023-02-02T04:54:41;101215.72;;;3.69;100.00
64933;BME280;51446;53.850;10.662;2023-02-02T04:57:06;101215.56;;;3.65;100.00
64933;BME280;51446;53.850;10.662;2023-02-02T04:59:32;101213.06;;;3.67;100.00
64933;BME280;51446;53.850;10.662;2023-02-02T05:02:00;101218.75;;;3.60;100.00
64933;BME280;51446;53.850;10.662;2023-02-02T05:04:26;101212.13;;;3.48;100.00
64933;BME280;51446;53.850;10.662;2023-02-02T05:06:51;101217.56;;;3.53;100.00
64933;BME280;51446;53.850;10.662;2023-02-02T05:09:17;101218.63;;;3.40;100.00
64933;BME280;51446;53.850;10.662;2023-02-02T05:11:42;101226.56;;;3.43;100.00
64933;BME280;51446;53.850;10.662;2023-02-02T05:14:09;101222.09;;;3.41;100.00
64933;BME280;51446;53.850;10.662;2023-02-02T05:16:34;101229.22;;;3.45;100.00
64933;BME280;51446;53.850;10.662;2023-02-02T05:19:00;101230.75;;;3.41;100.00
64933;BME280;51446;53.850;10.662;2023-02-02T05:21:25;101232.31;;;3.38;100.00
64933;BME280;51446;53.850;10.662;2023-02-02T05:23:50;101242.69;;;3.38;100.00
64933;BME280;51446;53.850;10.662;2023-02-02T05:26:19;101238.88;;;3.47;100.00
64933;BME280;51446;53.850;10.662;2023-02-02T05:28:46;101243.06;;;3.45;100.00
64933;BME280;51446;53.850;10.662;2023-02-02T05:31:12;101249.25;;;3.47;100.00
64933;BME280;51446;53.850;10.662;2023-02-02T05:33:38;101250.63;;;3.57;100.00
64933;BME280;51446;53.850;10.662;2023-02-02T05:36:03;101255.88;;;3.59;100.00
64933;BME280;51446;53.850;10.662;2023-02-02T05:38:29;101260.16;;;3.58;100.00
64933;BME280;51446;53.850;10.662;2023-02-02T05:40:54;101274.75;;;3.73;100.00
64933;BME280;51446;53.850;10.662;2023-02-02T05:43:19;101273.78;;;3.71;100.00
64933;BME280;51446;53.850;10.662;2023-02-02T05:45:44;101266.72;;;3.68;100.00
64933;BME280;51446;53.850;10.662;2023-02-02T05:48:12;101269.16;;;3.65;100.00
64933;BME280;51446;53.850;10.662;2023-02-02T05:50:46;101276.38;;;3.71;100.00
64933;BME280;51446;53.850;10.662;2023-02-02T05:53:14;101283.84;;;3.64;100.00
64933;BME280;51446;53.850;10.662;2023-02-02T05:55:39;101274.47;;;3.50;100.00
64933;BME280;51446;53.850;10.662;2023-02-02T05:58:05;101288.31;;;3.51;100.00
64933;BME280;51446;53.850;10.662;2023-02-02T06:00:30;101287.50;;;3.52;100.00
64933;BME280;51446;53.850;10.662;2023-02-02T06:02:55;101290.00;;;3.50;100.00
64933;BME280;51446;53.850;10.662;2023-02-02T06:05:20;101291.53;;;3.46;100.00
64933;BME280;51446;53.850;10.662;2023-02-02T06:07:46;101310.25;;;3.41;100.00
64933;BME280;51446;53.850;10.662;2023-02-02T06:10:11;101313.00;;;3.27;100.00
64933;BME280;51446;53.850;10.662;2023-02-02T06:12:37;101312.09;;;3.27;100.00
64933;BME280;51446;53.850;10.662;2023-02-02T06:15:03;101318.19;;;3.27;100.00
64933;BME280;51446;53.850;10.662;2023-02-02T06:17:28;101318.81;;;3.23;100.00
64933;BME280;51446;53.850;10.662;2023-02-02T06:19:53;101329.69;;;3.33;100.00
64933;BME280;51446;53.850;10.662;2023-02-02T06:22:19;101327.47;;;3.24;100.00
64933;BME280;51446;53.850;10.662;2023-02-02T06:24:44;101335.66;;;3.15;100.00
64933;BME280;51446;53.850;10.662;2023-02-02T06:27:09;101339.47;;;3.22;100.00
64933;BME280;51446;53.850;10.662;2023-02-02T06:29:34;101346.78;;;3.29;100.00
64933;BME280;51446;53.850;10.662;2023-02-02T06:32:00;101346.22;;;3.35;100.00
64933;BME280;51446;53.850;10.662;2023-02-02T06:34:25;101344.28;;;3.30;100.00
64933;BME280;51446;53.850;10.662;2023-02-02T06:36:50;101345.00;;;3.28;100.00
64933;BME280;51446;53.850;10.662;2023-02-02T06:39:16;101354.22;;;3.23;100.00
64933;BME280;51446;53.850;10.662;2023-02-02T06:41:41;101360.53;;;3.28;100.00
64933;BME280;51446;53.850;10.662;2023-02-02T06:44:08;101361.84;;;3.36;100.00
64933;BME280;51446;53.850;10.662;2023-02-02T06:46:34;101362.25;;;3.44;100.00
64933;BME280;51446;53.850;10.662;2023-02-02T06:48:59;101360.81;;;3.49;100.00
64933;BME280;51446;53.850;10.662;2023-02-02T06:51:24;101369.47;;;3.50;100.00
64933;BME280;51446;53.850;10.662;2023-02-02T06:53:49;101368.91;;;3.55;100.00
64933;BME280;51446;53.850;10.662;2023-02-02T06:56:15;101371.84;;;3.61;100.00
64933;BME280;51446;53.850;10.662;2023-02-02T06:58:41;101377.38;;;3.68;100.00
64933;BME280;51446;53.850;10.662;2023-02-02T07:01:11;101375.25;;;3.60;100.00
64933;BME280;51446;53.850;10.662;2023-02-02T07:03:37;101385.00;;;3.64;100.00
64933;BME280;51446;53.850;10.662;2023-02-02T07:06:12;101389.50;;;3.69;100.00
64933;BME280;51446;53.850;10.662;2023-02-02T07:08:38;101396.66;;;3.73;100.00
64933;BME280;51446;53.850;10.662;2023-02-02T07:11:03;101401.88;;;3.89;100.00
64933;BME280;51446;53.850;10.662;2023-02-02T07:13:28;101400.06;;;3.88;100.00
64933;BME280;51446;53.850;10.662;2023-02-02T07:15:54;101396.19;;;3.96;100.00
64933;BME280;51446;53.850;10.662;2023-02-02T07:18:21;101405.50;;;3.93;100.00
64933;BME280;51446;53.850;10.662;2023-02-02T07:20:46;101420.19;;;3.92;100.00
64933;BME280;51446;53.850;10.662;2023-02-02T07:23:12;101420.34;;;3.95;100.00
64933;BME280;51446;53.850;10.662;2023-02-02T07:25:37;101418.16;;;3.87;100.00
64933;BME280;51446;53.850;10.662;2023-02-02T07:28:02;101424.06;;;3.84;100.00
64933;BME280;51446;53.850;10.662;2023-02-02T07:30:28;101430.06;;;3.83;100.00
64933;BME280;51446;53.850;10.662;2023-02-02T07:32:54;101427.53;;;3.85;100.00
64933;BME280;51446;53.850;10.662;2023-02-02T07:35:19;101443.81;;;4.13;100.00
64933;BME280;51446;53.850;10.662;2023-02-02T07:37:50;101447.06;;;4.60;100.00
64933;BME280;51446;53.850;10.662;2023-02-02T07:40:15;101448.34;;;4.52;100.00
64933;BME280;51446;53.850;10.662;2023-02-02T07:42:40;101449.34;;;4.54;100.00
64933;BME280;51446;53.850;10.662;2023-02-02T07:45:06;101458.72;;;4.68;100.00
64933;BME280;51446;53.850;10.662;2023-02-02T07:47:32;101457.94;;;4.53;100.00
64933;BME280;51446;53.850;10.662;2023-02-02T07:49:57;101473.00;;;4.42;100.00
64933;BME280;51446;53.850;10.662;2023-02-02T07:52:22;101461.19;;;4.83;100.00
64933;BME280;51446;53.850;10.662;2023-02-02T07:54:47;101465.69;;;4.69;100.00
64933;BME280;51446;53.850;10.662;2023-02-02T07:57:16;101464.03;;;4.88;100.00
64933;BME280;51446;53.850;10.662;2023-02-02T07:59:41;101471.50;;;4.64;100.00
64933;BME280;51446;53.850;10.662;2023-02-02T08:02:08;101469.84;;;4.66;100.00
64933;BME280;51446;53.850;10.662;2023-02-02T08:04:33;101470.66;;;5.35;100.00
64933;BME280;51446;53.850;10.662;2023-02-02T08:06:58;101482.34;;;5.08;100.00
64933;BME280;51446;53.850;10.662;2023-02-02T08:09:24;101486.47;;;5.76;100.00
64933;BME280;51446;53.850;10.662;2023-02-02T08:11:49;101484.66;;;5.93;100.00
64933;BME280;51446;53.850;10.662;2023-02-02T08:14:15;101487.91;;;5.69;100.00
64933;BME280;51446;53.850;10.662;2023-02-02T08:16:40;101496.66;;;5.71;100.00
64933;BME280;51446;53.850;10.662;2023-02-02T08:19:05;101498.81;;;5.98;100.00
64933;BME280;51446;53.850;10.662;2023-02-02T08:21:34;101500.16;;;6.68;100.00
64933;BME280;51446;53.850;10.662;2023-02-02T08:24:00;101497.84;;;6.95;100.00
64933;BME280;51446;53.850;10.662;2023-02-02T08:26:28;101507.09;;;6.68;100.00
64933;BME280;51446;53.850;10.662;2023-02-02T08:28:59;101508.16;;;6.92;100.00
64933;BME280;51446;53.850;10.662;2023-02-02T08:31:30;101512.88;;;7.01;100.00
64933;BME280;51446;53.850;10.662;2023-02-02T08:33:56;101516.34;;;6.61;100.00
64933;BME280;51446;53.850;10.662;2023-02-02T08:36:26;101530.09;;;6.57;100.00
64933;BME280;51446;53.850;10.662;2023-02-02T08:38:51;101524.59;;;7.32;100.00
64933;BME280;51446;53.850;10.662;2023-02-02T08:41:19;101531.47;;;7.09;100.00
64933;BME280;51446;53.850;10.662;2023-02-02T08:43:45;101533.38;;;7.13;100.00
64933;BME280;51446;53.850;10.662;2023-02-02T08:46:12;101538.88;;;7.63;100.00
64933;BME280;51446;53.850;10.662;2023-02-02T08:48:38;101548.59;;;7.88;100.00
64933;BME280;51446;53.850;10.662;2023-02-02T08:51:05;101541.53;;;8.32;100.00
64933;BME280;51446;53.850;10.662;2023-02-02T08:53:31;101555.72;;;9.12;100.00
64933;BME280;51446;53.850;10.662;2023-02-02T08:56:01;101553.19;;;7.73;100.00
64933;BME280;51446;53.850;10.662;2023-02-02T08:58:28;101565.31;;;7.71;100.00
64933;BME280;51446;53.850;10.662;2023-02-02T09:00:53;101575.50;;;6.82;100.00
64933;BME280;51446;53.850;10.662;2023-02-02T09:03:19;101575.50;;;6.82;100.00
64933;BME280;51446;53.850;10.662;2023-02-02T09:05:44;101574.81;;;6.86;100.00
64933;BME280;51446;53.850;10.662;2023-02-02T09:08:09;101582.25;;;6.39;100.00
64933;BME280;51446;53.850;10.662;2023-02-02T09:10:35;101586.13;;;6.86;100.00
64933;BME280;51446;53.850;10.662;2023-02-02T09:13:01;101582.81;;;6.71;100.00
64933;BME280;51446;53.850;10.662;2023-02-02T09:15:27;101598.03;;;6.42;100.00
64933;BME280;51446;53.850;10.662;2023-02-02T09:17:53;101595.50;;;6.83;100.00
64933;BME280;51446;53.850;10.662;2023-02-02T09:20:18;101598.19;;;6.65;100.00
64933;BME280;51446;53.850;10.662;2023-02-02T09:22:43;101604.25;;;6.26;100.00
64933;BME280;51446;53.850;10.662;2023-02-02T09:25:08;101616.13;;;6.01;100.00
64933;BME280;51446;53.850;10.662;2023-02-02T09:27:37;101608.66;;;6.27;100.00
64933;BME280;51446;53.850;10.662;2023-02-02T09:30:03;101612.34;;;5.60;100.00
64933;BME280;51446;53.850;10.662;2023-02-02T09:32:29;101617.31;;;6.08;100.00
64933;BME280;51446;53.850;10.662;2023-02-02T09:34:54;101609.53;;;6.28;100.00
64933;BME280;51446;53.850;10.662;2023-02-02T09:37:19;101615.78;;;6.13;100.00
64933;BME280;51446;53.850;10.662;2023-02-02T09:39:44;101626.34;;;6.16;100.00
64933;BME280;51446;53.850;10.662;2023-02-02T09:45:03;101638.72;;;7.17;100.00
64933;BME280;51446;53.850;10.662;2023-02-02T09:50:21;101642.59;;;7.67;100.00
64933;BME280;51446;53.850;10.662;2023-02-02T09:52:57;101659.56;;;8.21;100.00
64933;BME280;51446;53.850;10.662;2023-02-02T10:03:49;101669.41;;;9.70;100.00
64933;BME280;51446;53.850;10.662;2023-02-02T10:08:54;101680.53;;;8.90;100.00
64933;BME280;51446;53.850;10.662;2023-02-02T10:11:44;101686.41;;;7.74;100.00
64933;BME280;51446;53.850;10.662;2023-02-02T10:14:21;101694.34;;;9.34;100.00
64933;BME280;51446;53.850;10.662;2023-02-02T10:16:53;101697.22;;;8.05;100.00
64933;BME280;51446;53.850;10.662;2023-02-02T10:19:19;101710.25;;;7.02;100.00
64933;BME280;51446;53.850;10.662;2023-02-02T10:21:58;101715.81;;;6.90;100.00
64933;BME280;51446;53.850;10.662;2023-02-02T10:24:26;101716.91;;;6.22;100.00
64933;BME280;51446;53.850;10.662;2023-02-02T10:26:55;101723.91;;;6.23;100.00
64933;BME280;51446;53.850;10.662;2023-02-02T10:45:40;101761.34;;;7.36;100.00
64933;BME280;51446;53.850;10.662;2023-02-02T10:48:14;101769.09;;;7.54;100.00
64933;BME280;51446;53.850;10.662;2023-02-02T10:50:44;101762.13;;;7.74;100.00
64933;BME280;51446;53.850;10.662;2023-02-02T10:53:12;101770.94;;;7.37;100.00
64933;BME280;51446;53.850;10.662;2023-02-02T10:55:43;101774.88;;;7.27;100.00
64933;BME280;51446;53.850;10.662;2023-02-02T11:03:11;101779.88;;;6.49;100.00
64933;BME280;51446;53.850;10.662;2023-02-02T11:05:37;101783.53;;;6.35;100.00
64933;BME280;51446;53.850;10.662;2023-02-02T11:08:31;101787.25;;;6.58;100.00
64933;BME280;51446;53.850;10.662;2023-02-02T11:11:09;101784.59;;;6.74;100.00
64933;BME280;51446;53.850;10.662;2023-02-02T11:13:52;101790.06;;;6.27;100.00
64933;BME280;51446;53.850;10.662;2023-02-02T11:16:22;101795.63;;;5.98;100.00
64933;BME280;51446;53.850;10.662;2023-02-02T11:18:47;101795.59;;;5.82;100.00
64933;BME280;51446;53.850;10.662;2023-02-02T11:21:26;101806.03;;;5.98;100.00
64933;BME280;51446;53.850;10.662;2023-02-02T11:24:02;101790.22;;;5.95;100.00
64933;BME280;51446;53.850;10.662;2023-02-02T11:26:42;101800.22;;;8.10;100.00
64933;BME280;51446;53.850;10.662;2023-02-02T11:29:13;101782.63;;;8.27;97.19
64933;BME280;51446;53.850;10.662;2023-02-02T11:31:40;101790.25;;;8.22;99.31
64933;BME280;51446;53.850;10.662;2023-02-02T11:34:18;101795.81;;;7.89;100.00
64933;BME280;51446;53.850;10.662;2023-02-02T11:36:58;101793.00;;;9.13;88.37
64933;BME280;51446;53.850;10.662;2023-02-02T11:39:24;101801.38;;;9.49;85.10
64933;BME280;51446;53.850;10.662;2023-02-02T11:41:50;101794.09;;;9.66;77.92
64933;BME280;51446;53.850;10.662;2023-02-02T11:44:24;101804.41;;;9.13;78.65
64933;BME280;51446;53.850;10.662;2023-02-02T11:46:51;101803.59;;;9.16;78.94
64933;BME280;51446;53.850;10.662;2023-02-02T11:49:19;101803.25;;;8.84;82.00
64933;BME280;51446;53.850;10.662;2023-02-02T11:51:58;101806.09;;;9.13;82.30
64933;BME280;51446;53.850;10.662;2023-02-02T11:54:30;101803.72;;;8.53;86.52
64933;BME280;51446;53.850;10.662;2023-02-02T11:56:59;101805.16;;;9.11;79.64
64933;BME280;51446;53.850;10.662;2023-02-02T11:59:28;101807.09;;;8.71;87.52
64933;BME280;51446;53.850;10.662;2023-02-02T12:02:27;101802.66;;;9.36;75.01
64933;BME280;51446;53.850;10.662;2023-02-02T12:04:55;101800.44;;;9.25;74.80
64933;BME280;51446;53.850;10.662;2023-02-02T12:07:36;101798.56;;;8.98;77.43
64933;BME280;51446;53.850;10.662;2023-02-02T12:10:19;101799.94;;;9.11;72.71
64933;BME280;51446;53.850;10.662;2023-02-02T12:15:50;101799.56;;;9.01;78.77
64933;BME280;51446;53.850;10.662;2023-02-02T12:21:45;101808.13;;;7.71;81.48
64933;BME280;51446;53.850;10.662;2023-02-02T12:24:28;101812.53;;;7.15;88.00
64933;BME280;51446;53.850;10.662;2023-02-02T12:27:03;101822.31;;;6.83;92.71
64933;BME280;51446;53.850;10.662;2023-02-02T12:30:00;101823.84;;;6.77;95.08
64933;BME280;51446;53.850;10.662;2023-02-02T12:32:43;101822.59;;;6.35;100.00
64933;BME280;51446;53.850;10.662;2023-02-02T12:35:26;101827.44;;;6.27;100.00
64933;BME280;51446;53.850;10.662;2023-02-02T12:43:33;101826.78;;;6.31;100.00
64933;BME280;51446;53.850;10.662;2023-02-02T12:52:07;101830.72;;;5.90;100.00
64933;BME280;51446;53.850;10.662;2023-02-02T12:57:47;101837.44;;;6.01;100.00
64933;BME280;51446;53.850;10.662;2023-02-02T13:00:25;101836.06;;;6.26;100.00
64933;BME280;51446;53.850;10.662;2023-02-02T13:08:27;101850.53;;;6.37;100.00
64933;BME280;51446;53.850;10.662;2023-02-02T13:10:59;101851.56;;;6.23;100.00
64933;BME280;51446;53.850;10.662;2023-02-02T13:13:31;101845.97;;;6.33;100.00
64933;BME280;51446;53.850;10.662;2023-02-02T13:16:07;101849.47;;;6.34;100.00
64933;BME280;51446;53.850;10.662;2023-02-02T13:18:36;101856.47;;;6.35;100.00
64933;BME280;51446;53.850;10.662;2023-02-02T13:21:06;101853.50;;;6.45;100.00
64933;BME280;51446;53.850;10.662;2023-02-02T13:23:38;101850.16;;;6.30;100.00
64933;BME280;51446;53.850;10.662;2023-02-02T13:26:13;101856.25;;;6.48;100.00
64933;BME280;51446;53.850;10.662;2023-02-02T13:34:22;101860.16;;;6.56;100.00
64933;BME280;51446;53.850;10.662;2023-02-02T13:37:03;101849.38;;;6.49;100.00
64933;BME280;51446;53.850;10.662;2023-02-02T13:39:35;101863.94;;;6.45;100.00
64933;BME280;51446;53.850;10.662;2023-02-02T13:42:04;101868.41;;;6.13;100.00
64933;BME280;51446;53.850;10.662;2023-02-02T13:44:45;101860.22;;;6.40;100.00
64933;BME280;51446;53.850;10.662;2023-02-02T13:47:20;101870.00;;;6.62;100.00
64933;BME280;51446;53.850;10.662;2023-02-02T13:49:53;101871.72;;;6.62;100.00
64933;BME280;51446;53.850;10.662;2023-02-02T13:52:40;101877.16;;;6.66;100.00
64933;BME280;51446;53.850;10.662;2023-02-02T14:00:49;101879.69;;;6.65;100.00
64933;BME280;51446;53.850;10.662;2023-02-02T14:03:33;101879.75;;;6.66;100.00
64933;BME280;51446;53.850;10.662;2023-02-02T14:08:43;101888.09;;;6.59;100.00
64933;BME280;51446;53.850;10.662;2023-02-02T14:11:36;101892.94;;;6.69;100.00
64933;BME280;51446;53.850;10.662;2023-02-02T14:14:16;101889.38;;;6.85;100.00
64933;BME280;51446;53.850;10.662;2023-02-02T14:17:03;101897.41;;;6.90;100.00
64933;BME280;51446;53.850;10.662;2023-02-02T14:27:01;101907.47;;;6.64;100.00
64933;BME280;51446;53.850;10.662;2023-02-02T14:31:55;101905.19;;;6.54;100.00
64933;BME280;51446;53.850;10.662;2023-02-02T14:39:25;101912.19;;;6.71;100.00
64933;BME280;51446;53.850;10.662;2023-02-02T14:42:12;101925.75;;;6.48;100.00
64933;BME280;51446;53.850;10.662;2023-02-02T14:47:50;101920.53;;;6.48;100.00